sensor_id;sensor_type;location;lat;lon;timestamp;temperature;humidity
32334;DHT22;18810;53.040;8.850;2023-05-07T00:00:40;11.10;99.90
32334;DHT22;18810;53.040;8.850;2023-05-07T00:03:06;11.10;99.90
32334;DHT22;18810;53.040;8.850;2023-05-07T00:05:32;11.10;99.90
32334;DHT22;18810;53.040;8.850;2023-05-07T00:07:57;10.90;99.90
32334;DHT22;18810;53.040;8.850;2023-05-07T00:10:23;11.10;99.90
32334;DHT22;18810;53.040;8.850;2023-05-07T00:12:49;11.10;99.90
32334;DHT22;18810;53.040;8.850;2023-05-07T00:15:14;11.10;99.90
32334;DHT22;18810;53.040;8.850;2023-05-07T00:17:40;11.00;99.90
32334;DHT22;18810;53.040;8.850;2023-05-07T00:20:07;10.90;99.90
32334;DHT22;18810;53.040;8.850;2023-05-07T00:22:33;10.90;99.90
32334;DHT22;18810;53.040;8.850;2023-05-07T00:24:58;11.10;99.90
32334;DHT22;18810;53.040;8.850;2023-05-07T00:27:24;11.10;99.90
32334;DHT22;18810;53.040;8.850;2023-05-07T00:29:50;11.00;99.90
32334;DHT22;18810;53.040;8.850;2023-05-07T00:32:16;10.80;99.90
32334;DHT22;18810;53.040;8.850;2023-05-07T00:34:42;10.80;99.90
32334;DHT22;18810;53.040;8.850;2023-05-07T00:37:08;10.90;99.90
32334;DHT22;18810;53.040;8.850;2023-05-07T00:39:35;10.80;99.90
32334;DHT22;18810;53.040;8.850;2023-05-07T00:42:01;10.80;99.90
32334;DHT22;18810;53.040;8.850;2023-05-07T00:44:28;10.90;99.90
32334;DHT22;18810;53.040;8.850;2023-05-07T00:46:54;11.00;99.90
32334;DHT22;18810;53.040;8.850;2023-05-07T00:51:46;10.90;99.90
32334;DHT22;18810;53.040;8.850;2023-05-07T00:54:13;10.80;99.90
32334;DHT22;18810;53.040;8.850;2023-05-07T00:56:39;10.80;99.90
32334;DHT22;18810;53.040;8.850;2023-05-07T01:01:32;10.70;99.90
32334;DHT22;18810;53.040;8.850;2023-05-07T01:06:25;10.60;99.90
32334;DHT22;18810;53.040;8.850;2023-05-07T01:08:52;10.60;99.90
32334;DHT22;18810;53.040;8.850;2023-05-07T01:11:18;10.50;99.90
32334;DHT22;18810;53.040;8.850;2023-05-07T01:13:46;10.50;99.90
32334;DHT22;18810;53.040;8.850;2023-05-07T01:16:12;10.60;99.90
32334;DHT22;18810;53.040;8.850;2023-05-07T01:18:38;10.60;99.90
32334;DHT22;18810;53.040;8.850;2023-05-07T01:21:04;10.60;99.90
32334;DHT22;18810;53.040;8.850;2023-05-07T01:23:30;10.40;99.90
32334;DHT22;18810;53.040;8.850;2023-05-07T01:25:56;10.40;99.90
32334;DHT22;18810;53.040;8.850;2023-05-07T01:28:23;10.60;99.90
32334;DHT22;18810;53.040;8.850;2023-05-07T01:30:56;10.50;99.90
32334;DHT22;18810;53.040;8.850;2023-05-07T01:33:26;10.50;99.90
32334;DHT22;18810;53.040;8.850;2023-05-07T01:35:53;10.50;99.90
32334;DHT22;18810;53.040;8.850;2023-05-07T01:38:20;10.30;99.90
32334;DHT22;18810;53.040;8.850;2023-05-07T01:40:47;10.20;99.90
32334;DHT22;18810;53.040;8.850;2023-05-07T01:43:12;10.30;99.90
32334;DHT22;18810;53.040;8.850;2023-05-07T01:45:39;10.30;99.90
32334;DHT22;18810;53.040;8.850;2023-05-07T01:48:06;10.20;99.90
32334;DHT22;18810;53.040;8.850;2023-05-07T01:50:32;10.30;99.90
32334;DHT22;18810;53.040;8.850;2023-05-07T01:55:25;10.40;99.90
32334;DHT22;18810;53.040;8.850;2023-05-07T01:57:50;10.30;99.90
32334;DHT22;18810;53.040;8.850;2023-05-07T02:00:16;10.30;99.90
32334;DHT22;18810;53.040;8.850;2023-05-07T02:02:42;10.20;99.90
32334;DHT22;18810;53.040;8.850;2023-05-07T02:05:08;10.20;99.90
32334;DHT22;18810;53.040;8.850;2023-05-07T02:07:34;10.30;99.90
32334;DHT22;18810;53.040;8.850;2023-05-07T02:10:00;10.30;99.90
32334;DHT22;18810;53.040;8.850;2023-05-07T02:12:26;10.20;99.90
32334;DHT22;18810;53.040;8.850;2023-05-07T02:14:51;10.30;99.90
32334;DHT22;18810;53.040;8.850;2023-05-07T02:17:17;10.20;99.90
32334;DHT22;18810;53.040;8.850;2023-05-07T02:19:43;10.20;99.90
32334;DHT22;18810;53.040;8.850;2023-05-07T02:22:09;10.10;99.90
32334;DHT22;18810;53.040;8.850;2023-05-07T02:29:28;9.90;99.90
32334;DHT22;18810;53.040;8.850;2023-05-07T02:34:21;10.10;99.90
32334;DHT22;18810;53.040;8.850;2023-05-07T02:36:46;10.30;99.90
32334;DHT22;18810;53.040;8.850;2023-05-07T02:39:13;10.30;99.90
32334;DHT22;18810;53.040;8.850;2023-05-07T02:41:39;10.30;99.90
32334;DHT22;18810;53.040;8.850;2023-05-07T02:44:04;10.20;99.90
32334;DHT22;18810;53.040;8.850;2023-05-07T02:46:30;10.20;99.90
32334;DHT22;18810;53.040;8.850;2023-05-07T02:48:56;10.20;99.90
32334;DHT22;18810;53.040;8.850;2023-05-07T02:51:22;10.20;99.90
32334;DHT22;18810;53.040;8.850;2023-05-07T02:53:48;10.30;99.90
32334;DHT22;18810;53.040;8.850;2023-05-07T02:56:14;10.10;99.90
32334;DHT22;18810;53.040;8.850;2023-05-07T02:58:40;10.10;99.90
32334;DHT22;18810;53.040;8.850;2023-05-07T03:01:07;10.10;99.90
32334;DHT22;18810;53.040;8.850;2023-05-07T03:03:33;10.10;99.90
32334;DHT22;18810;53.040;8.850;2023-05-07T03:05:59;10.20;99.90
32334;DHT22;18810;53.040;8.850;2023-05-07T03:08:25;10.10;99.90
32334;DHT22;18810;53.040;8.850;2023-05-07T03:10:51;10.10;99.90
32334;DHT22;18810;53.040;8.850;2023-05-07T03:13:17;10.20;99.90
32334;DHT22;18810;53.040;8.850;2023-05-07T03:15:43;10.20;99.90
32334;DHT22;18810;53.040;8.850;2023-05-07T03:18:08;10.20;99.90
32334;DHT22;18810;53.040;8.850;2023-05-07T03:20:34;10.10;99.90
32334;DHT22;18810;53.040;8.850;2023-05-07T03:23:00;10.10;99.90
32334;DHT22;18810;53.040;8.850;2023-05-07T03:25:25;10.20;99.90
32334;DHT22;18810;53.040;8.850;2023-05-07T03:27:51;10.10;99.90
32334;DHT22;18810;53.040;8.850;2023-05-07T03:30:17;10.20;99.90
32334;DHT22;18810;53.040;8.850;2023-05-07T03:32:42;10.20;99.90
32334;DHT22;18810;53.040;8.850;2023-05-07T03:35:08;10.00;99.90
32334;DHT22;18810;53.040;8.850;2023-05-07T03:37:34;10.00;99.90
32334;DHT22;18810;53.040;8.850;2023-05-07T03:39:59;10.00;99.90
32334;DHT22;18810;53.040;8.850;2023-05-07T03:42:25;10.00;99.90
32334;DHT22;18810;53.040;8.850;2023-05-07T03:44:51;10.30;99.90
32334;DHT22;18810;53.040;8.850;2023-05-07T03:49:42;10.20;99.90
32334;DHT22;18810;53.040;8.850;2023-05-07T03:52:08;10.20;99.90
32334;DHT22;18810;53.040;8.850;2023-05-07T03:54:34;10.10;99.90
32334;DHT22;18810;53.040;8.850;2023-05-07T03:56:59;10.10;99.90
32334;DHT22;18810;53.040;8.850;2023-05-07T03:59:25;10.10;99.90
32334;DHT22;18810;53.040;8.850;2023-05-07T04:01:51;10.10;99.90
32334;DHT22;18810;53.040;8.850;2023-05-07T04:04:16;10.10;99.90
32334;DHT22;18810;53.040;8.850;2023-05-07T04:06:42;10.40;99.90
32334;DHT22;18810;53.040;8.850;2023-05-07T04:09:08;10.20;99.90
32334;DHT22;18810;53.040;8.850;2023-05-07T04:11:35;10.10;99.90
32334;DHT22;18810;53.040;8.850;2023-05-07T04:14:00;10.00;99.90
32334;DHT22;18810;53.040;8.850;2023-05-07T04:16:26;10.00;99.90
32334;DHT22;18810;53.040;8.850;2023-05-07T04:18:52;10.10;99.90
32334;DHT22;18810;53.040;8.850;2023-05-07T04:21:19;10.20;99.90
32334;DHT22;18810;53.040;8.850;2023-05-07T04:23:49;10.10;99.90
32334;DHT22;18810;53.040;8.850;2023-05-07T04:26:15;10.40;99.90
32334;DHT22;18810;53.040;8.850;2023-05-07T04:28:41;10.00;99.90
32334;DHT22;18810;53.040;8.850;2023-05-07T04:31:07;10.00;99.90
32334;DHT22;18810;53.040;8.850;2023-05-07T04:33:34;10.10;99.90
32334;DHT22;18810;53.040;8.850;2023-05-07T04:36:05;10.10;99.90
32334;DHT22;18810;53.040;8.850;2023-05-07T04:38:31;10.10;99.90
32334;DHT22;18810;53.040;8.850;2023-05-07T04:40:58;10.10;99.90
32334;DHT22;18810;53.040;8.850;2023-05-07T04:43:27;10.20;99.90
32334;DHT22;18810;53.040;8.850;2023-05-07T04:45:53;10.30;99.90
32334;DHT22;18810;53.040;8.850;2023-05-07T04:48:18;10.20;99.90
32334;DHT22;18810;53.040;8.850;2023-05-07T04:50:52;10.10;99.90
32334;DHT22;18810;53.040;8.850;2023-05-07T04:53:18;10.20;99.90
32334;DHT22;18810;53.040;8.850;2023-05-07T04:55:44;10.20;99.90
32334;DHT22;18810;53.040;8.850;2023-05-07T04:58:10;10.30;99.90
32334;DHT22;18810;53.040;8.850;2023-05-07T05:00:36;10.50;99.90
32334;DHT22;18810;53.040;8.850;2023-05-07T05:03:02;10.40;99.90
32334;DHT22;18810;53.040;8.850;2023-05-07T05:05:28;10.40;99.90
32334;DHT22;18810;53.040;8.850;2023-05-07T05:07:53;10.40;99.90
32334;DHT22;18810;53.040;8.850;2023-05-07T05:12:45;10.40;99.90
32334;DHT22;18810;53.040;8.850;2023-05-07T05:15:13;10.40;99.90
32334;DHT22;18810;53.040;8.850;2023-05-07T05:20:06;10.20;99.90
32334;DHT22;18810;53.040;8.850;2023-05-07T05:22:32;10.20;99.90
32334;DHT22;18810;53.040;8.850;2023-05-07T05:24:58;10.50;99.90
32334;DHT22;18810;53.040;8.850;2023-05-07T05:27:24;10.30;99.90
32334;DHT22;18810;53.040;8.850;2023-05-07T05:29:49;10.40;99.90
32334;DHT22;18810;53.040;8.850;2023-05-07T05:32:15;10.30;99.90
32334;DHT22;18810;53.040;8.850;2023-05-07T05:34:40;10.50;99.90
32334;DHT22;18810;53.040;8.850;2023-05-07T05:37:06;10.30;99.90
32334;DHT22;18810;53.040;8.850;2023-05-07T05:39:32;10.30;99.90
32334;DHT22;18810;53.040;8.850;2023-05-07T05:44:23;10.40;99.90
32334;DHT22;18810;53.040;8.850;2023-05-07T05:46:49;10.40;99.90
32334;DHT22;18810;53.040;8.850;2023-05-07T05:49:15;10.40;99.90
32334;DHT22;18810;53.040;8.850;2023-05-07T05:51:41;10.40;99.90
32334;DHT22;18810;53.040;8.850;2023-05-07T05:56:33;10.40;99.90
32334;DHT22;18810;53.040;8.850;2023-05-07T05:58:58;10.40;99.90
32334;DHT22;18810;53.040;8.850;2023-05-07T06:01:25;10.40;99.90
32334;DHT22;18810;53.040;8.850;2023-05-07T06:03:50;10.40;99.90
32334;DHT22;18810;53.040;8.850;2023-05-07T06:06:16;10.50;99.90
32334;DHT22;18810;53.040;8.850;2023-05-07T06:08:42;10.50;99.90
32334;DHT22;18810;53.040;8.850;2023-05-07T06:11:07;10.50;99.90
32334;DHT22;18810;53.040;8.850;2023-05-07T06:13:33;10.60;99.90
32334;DHT22;18810;53.040;8.850;2023-05-07T06:15:59;10.80;99.90
32334;DHT22;18810;53.040;8.850;2023-05-07T06:18:24;10.90;99.90
32334;DHT22;18810;53.040;8.850;2023-05-07T06:20:51;10.90;99.90
32334;DHT22;18810;53.040;8.850;2023-05-07T06:23:17;10.80;99.90
32334;DHT22;18810;53.040;8.850;2023-05-07T06:25:45;10.80;99.90
32334;DHT22;18810;53.040;8.850;2023-05-07T06:28:11;10.80;99.90
32334;DHT22;18810;53.040;8.850;2023-05-07T06:30:37;10.90;99.90
32334;DHT22;18810;53.040;8.850;2023-05-07T06:33:02;11.00;99.90
32334;DHT22;18810;53.040;8.850;2023-05-07T06:35:28;10.90;99.90
32334;DHT22;18810;53.040;8.850;2023-05-07T06:37:53;10.90;99.90
32334;DHT22;18810;53.040;8.850;2023-05-07T06:40:19;10.80;99.90
32334;DHT22;18810;53.040;8.850;2023-05-07T06:42:44;10.90;99.90
32334;DHT22;18810;53.040;8.850;2023-05-07T06:45:10;11.10;99.90
32334;DHT22;18810;53.040;8.850;2023-05-07T06:47:36;10.90;99.90
32334;DHT22;18810;53.040;8.850;2023-05-07T06:50:02;11.10;99.90
32334;DHT22;18810;53.040;8.850;2023-05-07T06:52:27;11.30;99.90
32334;DHT22;18810;53.040;8.850;2023-05-07T06:54:53;11.10;99.90
32334;DHT22;18810;53.040;8.850;2023-05-07T06:57:18;11.00;99.90
32334;DHT22;18810;53.040;8.850;2023-05-07T06:59:44;10.90;99.90
32334;DHT22;18810;53.040;8.850;2023-05-07T07:02:10;11.00;99.90
32334;DHT22;18810;53.040;8.850;2023-05-07T07:04:38;11.10;99.90
32334;DHT22;18810;53.040;8.850;2023-05-07T07:09:30;11.50;99.90
32334;DHT22;18810;53.040;8.850;2023-05-07T07:11:56;11.70;99.90
32334;DHT22;18810;53.040;8.850;2023-05-07T07:16:47;11.70;99.90
32334;DHT22;18810;53.040;8.850;2023-05-07T07:19:13;11.70;99.90
32334;DHT22;18810;53.040;8.850;2023-05-07T07:21:41;11.70;99.90
32334;DHT22;18810;53.040;8.850;2023-05-07T07:24:06;11.90;99.90
32334;DHT22;18810;53.040;8.850;2023-05-07T07:26:32;11.80;99.90
32334;DHT22;18810;53.040;8.850;2023-05-07T07:28:58;11.70;99.90
32334;DHT22;18810;53.040;8.850;2023-05-07T07:31:23;11.70;99.90
32334;DHT22;18810;53.040;8.850;2023-05-07T07:33:49;11.70;99.90
32334;DHT22;18810;53.040;8.850;2023-05-07T07:36:15;11.50;99.90
32334;DHT22;18810;53.040;8.850;2023-05-07T07:38:41;11.50;99.90
32334;DHT22;18810;53.040;8.850;2023-05-07T07:41:10;11.60;99.90
32334;DHT22;18810;53.040;8.850;2023-05-07T07:43:36;11.40;99.90
32334;DHT22;18810;53.040;8.850;2023-05-07T07:46:01;11.60;99.90
32334;DHT22;18810;53.040;8.850;2023-05-07T07:48:27;11.70;99.90
32334;DHT22;18810;53.040;8.850;2023-05-07T07:50:52;11.80;99.90
32334;DHT22;18810;53.040;8.850;2023-05-07T07:53:18;11.50;99.90
32334;DHT22;18810;53.040;8.850;2023-05-07T07:55:44;11.70;99.90
32334;DHT22;18810;53.040;8.850;2023-05-07T07:58:10;12.00;99.90
32334;DHT22;18810;53.040;8.850;2023-05-07T08:00:36;12.10;99.90
32334;DHT22;18810;53.040;8.850;2023-05-07T08:03:01;12.10;99.90
32334;DHT22;18810;53.040;8.850;2023-05-07T08:05:28;12.00;99.90
32334;DHT22;18810;53.040;8.850;2023-05-07T08:07:54;12.10;99.90
32334;DHT22;18810;53.040;8.850;2023-05-07T08:10:20;12.40;99.90
32334;DHT22;18810;53.040;8.850;2023-05-07T08:12:49;12.60;99.90
32334;DHT22;18810;53.040;8.850;2023-05-07T08:15:15;12.50;99.90
32334;DHT22;18810;53.040;8.850;2023-05-07T08:17:41;12.60;99.90
32334;DHT22;18810;53.040;8.850;2023-05-07T08:20:07;12.50;99.90
32334;DHT22;18810;53.040;8.850;2023-05-07T08:22:34;12.60;99.90
32334;DHT22;18810;53.040;8.850;2023-05-07T08:27:26;12.90;99.90
32334;DHT22;18810;53.040;8.850;2023-05-07T08:29:52;12.80;99.90
32334;DHT22;18810;53.040;8.850;2023-05-07T08:32:17;12.80;99.90
32334;DHT22;18810;53.040;8.850;2023-05-07T08:34:43;12.50;99.90
32334;DHT22;18810;53.040;8.850;2023-05-07T08:37:08;12.60;99.90
32334;DHT22;18810;53.040;8.850;2023-05-07T08:39:34;12.70;99.90
32334;DHT22;18810;53.040;8.850;2023-05-07T08:42:00;12.80;99.90
32334;DHT22;18810;53.040;8.850;2023-05-07T08:44:28;13.00;99.90
32334;DHT22;18810;53.040;8.850;2023-05-07T08:46:59;13.30;99.90
32334;DHT22;18810;53.040;8.850;2023-05-07T08:49:27;13.50;99.90
32334;DHT22;18810;53.040;8.850;2023-05-07T08:51:53;13.50;99.90
32334;DHT22;18810;53.040;8.850;2023-05-07T08:54:19;13.70;99.90
32334;DHT22;18810;53.040;8.850;2023-05-07T08:56:45;13.50;99.90
32334;DHT22;18810;53.040;8.850;2023-05-07T08:59:11;13.60;99.90
32334;DHT22;18810;53.040;8.850;2023-05-07T09:01:37;13.50;99.90
32334;DHT22;18810;53.040;8.850;2023-05-07T09:04:04;13.40;99.90
32334;DHT22;18810;53.040;8.850;2023-05-07T09:06:29;13.30;99.90
32334;DHT22;18810;53.040;8.850;2023-05-07T09:08:55;13.20;99.90
32334;DHT22;18810;53.040;8.850;2023-05-07T09:11:22;13.30;99.90
32334;DHT22;18810;53.040;8.850;2023-05-07T09:13:52;13.50;99.90
32334;DHT22;18810;53.040;8.850;2023-05-07T09:16:20;13.50;99.90
32334;DHT22;18810;53.040;8.850;2023-05-07T09:18:46;13.80;99.90
32334;DHT22;18810;53.040;8.850;2023-05-07T09:21:16;13.70;99.90
32334;DHT22;18810;53.040;8.850;2023-05-07T09:23:43;13.70;99.90
32334;DHT22;18810;53.040;8.850;2023-05-07T09:26:08;14.20;99.90
32334;DHT22;18810;53.040;8.850;2023-05-07T09:28:41;14.80;99.90
32334;DHT22;18810;53.040;8.850;2023-05-07T09:31:08;14.70;99.90
32334;DHT22;18810;53.040;8.850;2023-05-07T09:33:33;14.20;99.90
32334;DHT22;18810;53.040;8.850;2023-05-07T09:36:06;14.30;99.90
32334;DHT22;18810;53.040;8.850;2023-05-07T09:38:33;14.10;99.90
32334;DHT22;18810;53.040;8.850;2023-05-07T09:41:07;14.20;99.90
32334;DHT22;18810;53.040;8.850;2023-05-07T09:43:34;14.40;99.90
32334;DHT22;18810;53.040;8.850;2023-05-07T09:46:20;14.50;99.90
32334;DHT22;18810;53.040;8.850;2023-05-07T09:48:52;14.30;99.90
32334;DHT22;18810;53.040;8.850;2023-05-07T09:51:25;14.20;99.90
32334;DHT22;18810;53.040;8.850;2023-05-07T09:53:54;14.10;99.90
32334;DHT22;18810;53.040;8.850;2023-05-07T09:56:21;14.10;99.90
32334;DHT22;18810;53.040;8.850;2023-05-07T09:58:48;14.10;99.90
32334;DHT22;18810;53.040;8.850;2023-05-07T10:01:17;13.90;99.90
32334;DHT22;18810;53.040;8.850;2023-05-07T10:03:45;14.00;99.90
32334;DHT22;18810;53.040;8.850;2023-05-07T10:06:12;14.00;99.90
32334;DHT22;18810;53.040;8.850;2023-05-07T10:08:38;14.10;99.90
32334;DHT22;18810;53.040;8.850;2023-05-07T10:11:05;14.00;99.90
32334;DHT22;18810;53.040;8.850;2023-05-07T10:13:33;14.20;99.90
32334;DHT22;18810;53.040;8.850;2023-05-07T10:16:04;14.20;99.90
32334;DHT22;18810;53.040;8.850;2023-05-07T10:18:31;14.00;99.90
32334;DHT22;18810;53.040;8.850;2023-05-07T10:21:07;14.20;99.90
32334;DHT22;18810;53.040;8.850;2023-05-07T10:23:33;14.30;99.90
32334;DHT22;18810;53.040;8.850;2023-05-07T10:26:05;14.20;99.90
32334;DHT22;18810;53.040;8.850;2023-05-07T10:28:36;14.20;99.90
32334;DHT22;18810;53.040;8.850;2023-05-07T10:31:33;14.50;99.90
32334;DHT22;18810;53.040;8.850;2023-05-07T10:34:06;14.60;99.90
32334;DHT22;18810;53.040;8.850;2023-05-07T10:36:33;14.60;99.90
32334;DHT22;18810;53.040;8.850;2023-05-07T10:39:00;15.10;99.90
32334;DHT22;18810;53.040;8.850;2023-05-07T10:41:25;15.50;99.90
32334;DHT22;18810;53.040;8.850;2023-05-07T10:43:51;15.60;99.90
32334;DHT22;18810;53.040;8.850;2023-05-07T10:46:21;15.40;99.90
32334;DHT22;18810;53.040;8.850;2023-05-07T10:51:28;16.00;99.90
32334;DHT22;18810;53.040;8.850;2023-05-07T10:56:39;16.20;99.90
32334;DHT22;18810;53.040;8.850;2023-05-07T11:04:17;17.20;99.90
32334;DHT22;18810;53.040;8.850;2023-05-07T11:15:10;17.90;99.90
32334;DHT22;18810;53.040;8.850;2023-05-07T11:17:55;17.90;99.90
32334;DHT22;18810;53.040;8.850;2023-05-07T11:26:02;18.20;99.90
32334;DHT22;18810;53.040;8.850;2023-05-07T11:28:28;18.10;99.90
32334;DHT22;18810;53.040;8.850;2023-05-07T11:30:56;18.30;99.90
32334;DHT22;18810;53.040;8.850;2023-05-07T11:33:22;18.20;99.90
32334;DHT22;18810;53.040;8.850;2023-05-07T11:35:52;18.90;99.90
32334;DHT22;18810;53.040;8.850;2023-05-07T11:38:18;19.30;99.90
32334;DHT22;18810;53.040;8.850;2023-05-07T11:43:17;19.00;99.90
32334;DHT22;18810;53.040;8.850;2023-05-07T11:45:44;18.80;99.90
32334;DHT22;18810;53.040;8.850;2023-05-07T11:48:09;18.30;99.90
32334;DHT22;18810;53.040;8.850;2023-05-07T11:50:35;18.40;99.90
32334;DHT22;18810;53.040;8.850;2023-05-07T11:53:07;17.90;99.90
32334;DHT22;18810;53.040;8.850;2023-05-07T11:55:33;17.60;99.90
32334;DHT22;18810;53.040;8.850;2023-05-07T11:57:59;17.10;99.90
32334;DHT22;18810;53.040;8.850;2023-05-07T12:00:24;17.00;99.90
32334;DHT22;18810;53.040;8.850;2023-05-07T12:02:50;17.20;99.90
32334;DHT22;18810;53.040;8.850;2023-05-07T12:05:16;16.90;99.90
32334;DHT22;18810;53.040;8.850;2023-05-07T12:07:41;17.00;99.90
32334;DHT22;18810;53.040;8.850;2023-05-07T12:10:07;17.20;99.90
32334;DHT22;18810;53.040;8.850;2023-05-07T12:12:40;17.50;99.90
32334;DHT22;18810;53.040;8.850;2023-05-07T12:15:07;17.50;99.90
32334;DHT22;18810;53.040;8.850;2023-05-07T12:17:33;17.20;99.90
32334;DHT22;18810;53.040;8.850;2023-05-07T12:20:00;17.20;99.90
32334;DHT22;18810;53.040;8.850;2023-05-07T12:22:26;17.20;99.90
32334;DHT22;18810;53.040;8.850;2023-05-07T12:24:58;17.40;99.90
32334;DHT22;18810;53.040;8.850;2023-05-07T12:27:25;17.30;99.90
32334;DHT22;18810;53.040;8.850;2023-05-07T12:29:51;17.70;99.90
32334;DHT22;18810;53.040;8.850;2023-05-07T12:32:18;18.10;99.90
32334;DHT22;18810;53.040;8.850;2023-05-07T12:34:45;17.60;99.90
32334;DHT22;18810;53.040;8.850;2023-05-07T12:37:11;17.50;99.90
32334;DHT22;18810;53.040;8.850;2023-05-07T12:39:38;17.50;99.90
32334;DHT22;18810;53.040;8.850;2023-05-07T12:42:20;17.70;99.90
32334;DHT22;18810;53.040;8.850;2023-05-07T12:44:51;17.50;99.90
32334;DHT22;18810;53.040;8.850;2023-05-07T12:47:17;17.40;99.90
32334;DHT22;18810;53.040;8.850;2023-05-07T12:49:43;17.40;99.90
32334;DHT22;18810;53.040;8.850;2023-05-07T12:52:11;17.20;99.90
32334;DHT22;18810;53.040;8.850;2023-05-07T12:54:37;17.40;99.90
32334;DHT22;18810;53.040;8.850;2023-05-07T12:57:08;17.20;99.90
32334;DHT22;18810;53.040;8.850;2023-05-07T12:59:41;17.60;99.90
32334;DHT22;18810;53.040;8.850;2023-05-07T13:02:08;17.70;99.90
32334;DHT22;18810;53.040;8.850;2023-05-07T13:04:34;17.50;99.90
32334;DHT22;18810;53.040;8.850;2023-05-07T13:07:01;17.50;99.90
32334;DHT22;18810;53.040;8.850;2023-05-07T13:09:27;17.90;99.90
32334;DHT22;18810;53.040;8.850;2023-05-07T13:11:54;18.20;99.90
32334;DHT22;18810;53.040;8.850;2023-05-07T13:14:20;18.40;99.90
32334;DHT22;18810;53.040;8.850;2023-05-07T13:16:49;18.30;99.90
32334;DHT22;18810;53.040;8.850;2023-05-07T13:19:15;18.60;99.90
32334;DHT22;18810;53.040;8.850;2023-05-07T13:21:40;18.60;99.90
32334;DHT22;18810;53.040;8.850;2023-05-07T13:24:06;18.90;99.90
32334;DHT22;18810;53.040;8.850;2023-05-07T13:26:32;19.40;99.90
32334;DHT22;18810;53.040;8.850;2023-05-07T13:28:58;19.70;99.90
32334;DHT22;18810;53.040;8.850;2023-05-07T13:31:24;19.50;99.90
32334;DHT22;18810;53.040;8.850;2023-05-07T13:33:50;19.90;99.90
32334;DHT22;18810;53.040;8.850;2023-05-07T13:36:16;20.20;99.90
32334;DHT22;18810;53.040;8.850;2023-05-07T13:38:41;20.50;99.50
32334;DHT22;18810;53.040;8.850;2023-05-07T13:41:07;21.20;99.10
32334;DHT22;18810;53.040;8.850;2023-05-07T13:43:33;20.60;98.80
32334;DHT22;18810;53.040;8.850;2023-05-07T13:46:00;20.00;99.90
32334;DHT22;18810;53.040;8.850;2023-05-07T13:48:26;20.00;99.60
32334;DHT22;18810;53.040;8.850;2023-05-07T13:50:51;20.80;99.30
32334;DHT22;18810;53.040;8.850;2023-05-07T13:53:17;21.40;97.90
32334;DHT22;18810;53.040;8.850;2023-05-07T13:55:44;21.60;97.50
32334;DHT22;18810;53.040;8.850;2023-05-07T13:58:10;21.30;97.50
32334;DHT22;18810;53.040;8.850;2023-05-07T14:00:36;20.80;98.20
32334;DHT22;18810;53.040;8.850;2023-05-07T14:03:02;20.50;99.20
32334;DHT22;18810;53.040;8.850;2023-05-07T14:05:28;21.00;98.60
32334;DHT22;18810;53.040;8.850;2023-05-07T14:07:55;21.30;98.20
32334;DHT22;18810;53.040;8.850;2023-05-07T14:10:22;21.80;97.70
32334;DHT22;18810;53.040;8.850;2023-05-07T14:12:47;21.90;97.10
32334;DHT22;18810;53.040;8.850;2023-05-07T14:15:13;21.20;97.10
32334;DHT22;18810;53.040;8.850;2023-05-07T14:17:39;21.20;97.20
32334;DHT22;18810;53.040;8.850;2023-05-07T14:20:05;21.40;96.90
32334;DHT22;18810;53.040;8.850;2023-05-07T14:22:32;21.60;97.30
32334;DHT22;18810;53.040;8.850;2023-05-07T14:24:58;21.50;96.80
32334;DHT22;18810;53.040;8.850;2023-05-07T14:27:23;21.30;97.40
32334;DHT22;18810;53.040;8.850;2023-05-07T14:29:49;21.30;96.70
32334;DHT22;18810;53.040;8.850;2023-05-07T14:32:19;21.40;97.20
32334;DHT22;18810;53.040;8.850;2023-05-07T14:34:45;21.20;97.50
32334;DHT22;18810;53.040;8.850;2023-05-07T14:37:12;21.10;97.00
32334;DHT22;18810;53.040;8.850;2023-05-07T14:39:37;21.30;96.80
32334;DHT22;18810;53.040;8.850;2023-05-07T14:42:03;21.10;97.00
32334;DHT22;18810;53.040;8.850;2023-05-07T14:44:29;21.30;97.10
32334;DHT22;18810;53.040;8.850;2023-05-07T14:46:55;21.70;96.50
32334;DHT22;18810;53.040;8.850;2023-05-07T14:49:20;21.50;96.30
32334;DHT22;18810;53.040;8.850;2023-05-07T14:51:46;21.40;96.50
32334;DHT22;18810;53.040;8.850;2023-05-07T14:54:13;21.40;96.50
32334;DHT22;18810;53.040;8.850;2023-05-07T14:56:39;21.40;96.40
32334;DHT22;18810;53.040;8.850;2023-05-07T14:59:05;21.00;96.90
32334;DHT22;18810;53.040;8.850;2023-05-07T15:01:30;21.00;96.80
32334;DHT22;18810;53.040;8.850;2023-05-07T15:03:56;20.70;96.80
32334;DHT22;18810;53.040;8.850;2023-05-07T15:06:22;20.90;97.20
32334;DHT22;18810;53.040;8.850;2023-05-07T15:08:47;21.10;97.20
32334;DHT22;18810;53.040;8.850;2023-05-07T15:11:16;21.00;97.30
32334;DHT22;18810;53.040;8.850;2023-05-07T15:13:44;20.50;97.60
32334;DHT22;18810;53.040;8.850;2023-05-07T15:16:10;20.20;98.00
32334;DHT22;18810;53.040;8.850;2023-05-07T15:18:36;20.10;98.50
32334;DHT22;18810;53.040;8.850;2023-05-07T15:21:01;19.80;98.30
32334;DHT22;18810;53.040;8.850;2023-05-07T15:23:27;19.40;98.00
32334;DHT22;18810;53.040;8.850;2023-05-07T15:25:53;19.20;99.00
32334;DHT22;18810;53.040;8.850;2023-05-07T15:28:19;19.00;99.30
32334;DHT22;18810;53.040;8.850;2023-05-07T15:30:45;19.10;99.00
32334;DHT22;18810;53.040;8.850;2023-05-07T15:33:11;19.10;99.10
32334;DHT22;18810;53.040;8.850;2023-05-07T15:35:36;19.50;98.50
32334;DHT22;18810;53.040;8.850;2023-05-07T15:38:02;19.80;98.50
32334;DHT22;18810;53.040;8.850;2023-05-07T15:40:28;20.20;97.60
32334;DHT22;18810;53.040;8.850;2023-05-07T15:42:55;20.40;97.40
32334;DHT22;18810;53.040;8.850;2023-05-07T15:45:21;20.30;97.20
32334;DHT22;18810;53.040;8.850;2023-05-07T15:47:47;20.20;97.60
32334;DHT22;18810;53.040;8.850;2023-05-07T15:50:13;20.50;97.20
32334;DHT22;18810;53.040;8.850;2023-05-07T15:52:39;20.80;96.50
32334;DHT22;18810;53.040;8.850;2023-05-07T15:55:05;20.90;96.00
32334;DHT22;18810;53.040;8.850;2023-05-07T15:57:31;20.80;96.20
32334;DHT22;18810;53.040;8.850;2023-05-07T15:59:57;21.20;95.90
32334;DHT22;18810;53.040;8.850;2023-05-07T16:02:23;21.20;95.70
32334;DHT22;18810;53.040;8.850;2023-05-07T16:04:49;21.60;95.20
32334;DHT22;18810;53.040;8.850;2023-05-07T16:07:15;21.80;95.30
32334;DHT22;18810;53.040;8.850;2023-05-07T16:09:40;21.60;94.90
32334;DHT22;18810;53.040;8.850;2023-05-07T16:12:06;21.80;95.10
32334;DHT22;18810;53.040;8.850;2023-05-07T16:14:32;21.40;95.30
32334;DHT22;18810;53.040;8.850;2023-05-07T16:16:57;20.60;96.20
32334;DHT22;18810;53.040;8.850;2023-05-07T16:19:23;20.30;96.20
32334;DHT22;18810;53.040;8.850;2023-05-07T16:21:48;20.60;96.20
32334;DHT22;18810;53.040;8.850;2023-05-07T16:24:14;20.80;96.30
32334;DHT22;18810;53.040;8.850;2023-05-07T16:26:40;21.00;96.00
32334;DHT22;18810;53.040;8.850;2023-05-07T16:29:06;21.40;95.80